sensor_id;sensor_type;location;lat;lon;timestamp;P1;durP1;ratioP1;P2;durP2;ratioP2
68947;SDS011;55996;49.546;7.400;2023-07-29T00:00:45;7.50;;;2.30;;
68947;SDS011;55996;49.546;7.400;2023-07-29T00:03:11;5.07;;;1.90;;
68947;SDS011;55996;49.546;7.400;2023-07-29T00:05:37;4.27;;;2.23;;
68947;SDS011;55996;49.546;7.400;2023-07-29T00:08:03;3.13;;;1.90;;
68947;SDS011;55996;49.546;7.400;2023-07-29T00:10:28;2.83;;;2.00;;
68947;SDS011;55996;49.546;7.400;2023-07-29T00:12:56;9.83;;;1.97;;
68947;SDS011;55996;49.546;7.400;2023-07-29T00:15:21;5.83;;;2.40;;
68947;SDS011;55996;49.546;7.400;2023-07-29T00:17:47;8.57;;;2.07;;
68947;SDS011;55996;49.546;7.400;2023-07-29T00:25:22;3.07;;;2.37;;
68947;SDS011;55996;49.546;7.400;2023-07-29T00:27:48;5.53;;;2.30;;
68947;SDS011;55996;49.546;7.400;2023-07-29T00:30:13;3.57;;;2.30;;
68947;SDS011;55996;49.546;7.400;2023-07-29T00:32:39;5.93;;;1.93;;
68947;SDS011;55996;49.546;7.400;2023-07-29T00:35:04;3.53;;;2.20;;
68947;SDS011;55996;49.546;7.400;2023-07-29T00:37:31;4.87;;;2.13;;
68947;SDS011;55996;49.546;7.400;2023-07-29T00:39:56;4.87;;;2.40;;
68947;SDS011;55996;49.546;7.400;2023-07-29T00:42:23;3.67;;;2.37;;
68947;SDS011;55996;49.546;7.400;2023-07-29T00:44:48;5.60;;;2.50;;
68947;SDS011;55996;49.546;7.400;2023-07-29T00:47:15;2.77;;;2.20;;
68947;SDS011;55996;49.546;7.400;2023-07-29T00:49:41;4.80;;;2.30;;
68947;SDS011;55996;49.546;7.400;2023-07-29T00:52:08;5.67;;;2.30;;
68947;SDS011;55996;49.546;7.400;2023-07-29T00:54:36;5.97;;;2.30;;
68947;SDS011;55996;49.546;7.400;2023-07-29T00:57:01;4.20;;;2.23;;
68947;SDS011;55996;49.546;7.400;2023-07-29T00:59:27;8.73;;;2.67;;
68947;SDS011;55996;49.546;7.400;2023-07-29T01:01:53;5.30;;;2.40;;
68947;SDS011;55996;49.546;7.400;2023-07-29T01:04:19;4.90;;;2.47;;
68947;SDS011;55996;49.546;7.400;2023-07-29T01:06:58;2.43;;;2.23;;
68947;SDS011;55996;49.546;7.400;2023-07-29T01:09:33;2.93;;;2.40;;
68947;SDS011;55996;49.546;7.400;2023-07-29T01:15:10;4.77;;;2.20;;
68947;SDS011;55996;49.546;7.400;2023-07-29T01:17:42;8.63;;;2.80;;
68947;SDS011;55996;49.546;7.400;2023-07-29T01:20:13;3.57;;;2.90;;
68947;SDS011;55996;49.546;7.400;2023-07-29T01:22:40;4.63;;;2.80;;
68947;SDS011;55996;49.546;7.400;2023-07-29T01:25:07;5.60;;;3.10;;
68947;SDS011;55996;49.546;7.400;2023-07-29T01:27:32;6.27;;;2.90;;
68947;SDS011;55996;49.546;7.400;2023-07-29T01:29:58;5.67;;;2.97;;
68947;SDS011;55996;49.546;7.400;2023-07-29T01:35:48;7.47;;;2.70;;
68947;SDS011;55996;49.546;7.400;2023-07-29T01:38:31;2.70;;;2.50;;
68947;SDS011;55996;49.546;7.400;2023-07-29T01:41:02;4.13;;;2.50;;
68947;SDS011;55996;49.546;7.400;2023-07-29T01:43:29;4.90;;;2.57;;
68947;SDS011;55996;49.546;7.400;2023-07-29T01:45:55;3.20;;;2.40;;
68947;SDS011;55996;49.546;7.400;2023-07-29T01:48:20;2.60;;;2.40;;
68947;SDS011;55996;49.546;7.400;2023-07-29T01:50:46;4.80;;;2.50;;
68947;SDS011;55996;49.546;7.400;2023-07-29T01:53:12;4.03;;;2.30;;
68947;SDS011;55996;49.546;7.400;2023-07-29T01:55:38;4.83;;;2.33;;
68947;SDS011;55996;49.546;7.400;2023-07-29T01:58:03;4.47;;;2.60;;
68947;SDS011;55996;49.546;7.400;2023-07-29T02:00:29;6.10;;;2.27;;
68947;SDS011;55996;49.546;7.400;2023-07-29T02:02:54;3.40;;;2.27;;
68947;SDS011;55996;49.546;7.400;2023-07-29T02:05:20;3.60;;;2.10;;
68947;SDS011;55996;49.546;7.400;2023-07-29T02:07:45;2.10;;;1.90;;
68947;SDS011;55996;49.546;7.400;2023-07-29T02:10:11;2.50;;;2.17;;
68947;SDS011;55996;49.546;7.400;2023-07-29T02:12:36;2.73;;;2.10;;
68947;SDS011;55996;49.546;7.400;2023-07-29T02:15:02;2.07;;;1.97;;
68947;SDS011;55996;49.546;7.400;2023-07-29T02:17:30;2.17;;;2.07;;
68947;SDS011;55996;49.546;7.400;2023-07-29T02:19:55;2.97;;;2.40;;
68947;SDS011;55996;49.546;7.400;2023-07-29T02:22:21;3.93;;;1.80;;
68947;SDS011;55996;49.546;7.400;2023-07-29T02:24:46;2.27;;;1.93;;
68947;SDS011;55996;49.546;7.400;2023-07-29T02:27:12;2.73;;;2.00;;
68947;SDS011;55996;49.546;7.400;2023-07-29T02:29:37;4.27;;;2.10;;
68947;SDS011;55996;49.546;7.400;2023-07-29T02:32:03;5.00;;;2.17;;
68947;SDS011;55996;49.546;7.400;2023-07-29T02:34:29;3.57;;;2.37;;
68947;SDS011;55996;49.546;7.400;2023-07-29T02:36:54;3.60;;;2.30;;
68947;SDS011;55996;49.546;7.400;2023-07-29T02:39:20;3.87;;;2.23;;
68947;SDS011;55996;49.546;7.400;2023-07-29T02:41:45;2.33;;;2.10;;
68947;SDS011;55996;49.546;7.400;2023-07-29T02:44:11;2.90;;;2.17;;
68947;SDS011;55996;49.546;7.400;2023-07-29T02:46:36;2.53;;;2.20;;
68947;SDS011;55996;49.546;7.400;2023-07-29T02:49:02;3.53;;;2.57;;
68947;SDS011;55996;49.546;7.400;2023-07-29T02:51:29;2.70;;;2.50;;
68947;SDS011;55996;49.546;7.400;2023-07-29T02:53:55;4.37;;;2.43;;
68947;SDS011;55996;49.546;7.400;2023-07-29T02:56:20;2.50;;;2.20;;
68947;SDS011;55996;49.546;7.400;2023-07-29T02:58:45;5.03;;;2.50;;
68947;SDS011;55996;49.546;7.400;2023-07-29T03:01:11;2.50;;;2.30;;
68947;SDS011;55996;49.546;7.400;2023-07-29T03:03:36;2.93;;;2.30;;
68947;SDS011;55996;49.546;7.400;2023-07-29T03:06:03;4.13;;;2.73;;
68947;SDS011;55996;49.546;7.400;2023-07-29T03:08:31;3.47;;;2.30;;
68947;SDS011;55996;49.546;7.400;2023-07-29T03:10:57;3.50;;;2.40;;
68947;SDS011;55996;49.546;7.400;2023-07-29T03:13:22;3.60;;;2.10;;
68947;SDS011;55996;49.546;7.400;2023-07-29T03:15:48;2.33;;;2.10;;
68947;SDS011;55996;49.546;7.400;2023-07-29T03:18:14;5.27;;;2.00;;
68947;SDS011;55996;49.546;7.400;2023-07-29T03:20:40;2.83;;;2.50;;
68947;SDS011;55996;49.546;7.400;2023-07-29T03:23:05;3.10;;;2.37;;
68947;SDS011;55996;49.546;7.400;2023-07-29T03:25:31;5.87;;;2.67;;
68947;SDS011;55996;49.546;7.400;2023-07-29T03:27:57;2.80;;;2.20;;
68947;SDS011;55996;49.546;7.400;2023-07-29T03:30:22;4.30;;;2.37;;
68947;SDS011;55996;49.546;7.400;2023-07-29T03:32:48;3.40;;;2.20;;
68947;SDS011;55996;49.546;7.400;2023-07-29T03:35:14;3.07;;;2.33;;
68947;SDS011;55996;49.546;7.400;2023-07-29T03:37:40;4.30;;;2.50;;
68947;SDS011;55996;49.546;7.400;2023-07-29T03:40:06;3.33;;;2.53;;
68947;SDS011;55996;49.546;7.400;2023-07-29T03:42:32;3.47;;;2.00;;
68947;SDS011;55996;49.546;7.400;2023-07-29T03:45:00;2.60;;;2.40;;
68947;SDS011;55996;49.546;7.400;2023-07-29T03:47:26;3.43;;;1.97;;
68947;SDS011;55996;49.546;7.400;2023-07-29T03:49:52;4.23;;;2.63;;
68947;SDS011;55996;49.546;7.400;2023-07-29T03:52:17;3.30;;;2.80;;
68947;SDS011;55996;49.546;7.400;2023-07-29T03:54:43;2.90;;;2.40;;
68947;SDS011;55996;49.546;7.400;2023-07-29T03:57:08;3.30;;;2.30;;
68947;SDS011;55996;49.546;7.400;2023-07-29T03:59:34;7.13;;;2.77;;
68947;SDS011;55996;49.546;7.400;2023-07-29T04:01:59;3.23;;;2.37;;
68947;SDS011;55996;49.546;7.400;2023-07-29T04:04:25;5.00;;;2.60;;
68947;SDS011;55996;49.546;7.400;2023-07-29T04:06:50;4.23;;;2.23;;
68947;SDS011;55996;49.546;7.400;2023-07-29T04:09:15;6.33;;;2.80;;
68947;SDS011;55996;49.546;7.400;2023-07-29T04:11:41;3.23;;;2.70;;
68947;SDS011;55996;49.546;7.400;2023-07-29T04:14:06;2.53;;;2.33;;
68947;SDS011;55996;49.546;7.400;2023-07-29T04:16:32;4.63;;;2.33;;
68947;SDS011;55996;49.546;7.400;2023-07-29T04:18:57;2.70;;;2.10;;
68947;SDS011;55996;49.546;7.400;2023-07-29T04:21:22;7.40;;;2.67;;
68947;SDS011;55996;49.546;7.400;2023-07-29T04:23:48;3.80;;;2.60;;
68947;SDS011;55996;49.546;7.400;2023-07-29T04:26:13;2.70;;;2.50;;
68947;SDS011;55996;49.546;7.400;2023-07-29T04:28:39;5.00;;;2.77;;
68947;SDS011;55996;49.546;7.400;2023-07-29T04:31:04;3.10;;;2.80;;
68947;SDS011;55996;49.546;7.400;2023-07-29T04:33:30;3.67;;;2.80;;
68947;SDS011;55996;49.546;7.400;2023-07-29T04:35:58;4.47;;;2.60;;
68947;SDS011;55996;49.546;7.400;2023-07-29T04:38:27;5.63;;;3.00;;
68947;SDS011;55996;49.546;7.400;2023-07-29T04:40:55;2.63;;;2.43;;
68947;SDS011;55996;49.546;7.400;2023-07-29T04:43:21;5.70;;;2.77;;
68947;SDS011;55996;49.546;7.400;2023-07-29T04:45:46;3.93;;;2.80;;
68947;SDS011;55996;49.546;7.400;2023-07-29T04:48:11;3.27;;;2.80;;
68947;SDS011;55996;49.546;7.400;2023-07-29T04:50:37;3.10;;;2.80;;
68947;SDS011;55996;49.546;7.400;2023-07-29T04:53:02;4.30;;;3.00;;
68947;SDS011;55996;49.546;7.400;2023-07-29T04:55:28;7.93;;;3.00;;
68947;SDS011;55996;49.546;7.400;2023-07-29T04:57:53;4.10;;;2.97;;
68947;SDS011;55996;49.546;7.400;2023-07-29T05:00:18;4.67;;;3.20;;
68947;SDS011;55996;49.546;7.400;2023-07-29T05:02:44;4.90;;;3.00;;
68947;SDS011;55996;49.546;7.400;2023-07-29T05:05:09;4.03;;;3.00;;
68947;SDS011;55996;49.546;7.400;2023-07-29T05:07:35;4.20;;;2.97;;
68947;SDS011;55996;49.546;7.400;2023-07-29T05:10:00;4.17;;;2.90;;
68947;SDS011;55996;49.546;7.400;2023-07-29T05:12:26;4.37;;;3.17;;
68947;SDS011;55996;49.546;7.400;2023-07-29T05:14:51;5.13;;;3.40;;
68947;SDS011;55996;49.546;7.400;2023-07-29T05:17:17;6.30;;;3.20;;
68947;SDS011;55996;49.546;7.400;2023-07-29T05:19:42;4.17;;;3.20;;
68947;SDS011;55996;49.546;7.400;2023-07-29T05:22:07;4.07;;;2.80;;
68947;SDS011;55996;49.546;7.400;2023-07-29T05:24:33;5.77;;;3.43;;
68947;SDS011;55996;49.546;7.400;2023-07-29T05:26:58;7.63;;;3.70;;
68947;SDS011;55996;49.546;7.400;2023-07-29T05:29:24;4.93;;;3.57;;
68947;SDS011;55996;49.546;7.400;2023-07-29T05:31:49;5.63;;;3.10;;
68947;SDS011;55996;49.546;7.400;2023-07-29T05:34:14;7.40;;;4.20;;
68947;SDS011;55996;49.546;7.400;2023-07-29T05:36:40;19.30;;;5.17;;
68947;SDS011;55996;49.546;7.400;2023-07-29T05:39:06;11.93;;;4.53;;
68947;SDS011;55996;49.546;7.400;2023-07-29T05:41:32;10.07;;;3.70;;
68947;SDS011;55996;49.546;7.400;2023-07-29T05:43:57;4.53;;;2.50;;
68947;SDS011;55996;49.546;7.400;2023-07-29T05:46:24;6.87;;;2.70;;
68947;SDS011;55996;49.546;7.400;2023-07-29T05:48:49;7.23;;;2.70;;
68947;SDS011;55996;49.546;7.400;2023-07-29T05:51:15;9.77;;;2.50;;
68947;SDS011;55996;49.546;7.400;2023-07-29T05:53:40;23.30;;;4.47;;
68947;SDS011;55996;49.546;7.400;2023-07-29T05:56:06;20.83;;;3.33;;
68947;SDS011;55996;49.546;7.400;2023-07-29T05:58:31;18.20;;;3.90;;
68947;SDS011;55996;49.546;7.400;2023-07-29T06:00:57;11.10;;;3.20;;
68947;SDS011;55996;49.546;7.400;2023-07-29T06:03:23;13.53;;;3.40;;
68947;SDS011;55996;49.546;7.400;2023-07-29T06:05:48;12.63;;;3.00;;
68947;SDS011;55996;49.546;7.400;2023-07-29T06:08:14;12.33;;;3.00;;
68947;SDS011;55996;49.546;7.400;2023-07-29T06:10:42;12.23;;;3.20;;
68947;SDS011;55996;49.546;7.400;2023-07-29T06:13:08;16.33;;;3.13;;
68947;SDS011;55996;49.546;7.400;2023-07-29T06:15:33;10.83;;;2.70;;
68947;SDS011;55996;49.546;7.400;2023-07-29T06:17:59;13.20;;;3.00;;
68947;SDS011;55996;49.546;7.400;2023-07-29T06:20:24;12.20;;;3.00;;
68947;SDS011;55996;49.546;7.400;2023-07-29T06:22:50;10.67;;;2.70;;
68947;SDS011;55996;49.546;7.400;2023-07-29T06:25:15;9.97;;;2.20;;
68947;SDS011;55996;49.546;7.400;2023-07-29T06:27:41;6.53;;;2.33;;
68947;SDS011;55996;49.546;7.400;2023-07-29T06:30:06;7.30;;;2.20;;
68947;SDS011;55996;49.546;7.400;2023-07-29T06:32:32;7.13;;;1.93;;
68947;SDS011;55996;49.546;7.400;2023-07-29T06:34:58;10.67;;;2.33;;
68947;SDS011;55996;49.546;7.400;2023-07-29T06:37:24;10.33;;;2.40;;
68947;SDS011;55996;49.546;7.400;2023-07-29T06:39:49;7.30;;;2.03;;
68947;SDS011;55996;49.546;7.400;2023-07-29T06:42:15;8.33;;;1.83;;
68947;SDS011;55996;49.546;7.400;2023-07-29T06:44:40;3.27;;;1.73;;
68947;SDS011;55996;49.546;7.400;2023-07-29T06:47:05;4.57;;;1.80;;
68947;SDS011;55996;49.546;7.400;2023-07-29T06:49:31;3.60;;;1.90;;
68947;SDS011;55996;49.546;7.400;2023-07-29T06:51:56;8.63;;;2.10;;
68947;SDS011;55996;49.546;7.400;2023-07-29T06:54:25;5.37;;;2.07;;
68947;SDS011;55996;49.546;7.400;2023-07-29T06:56:53;2.73;;;1.40;;
68947;SDS011;55996;49.546;7.400;2023-07-29T06:59:18;4.50;;;1.60;;
68947;SDS011;55996;49.546;7.400;2023-07-29T07:01:44;1.90;;;1.60;;
68947;SDS011;55996;49.546;7.400;2023-07-29T07:04:09;1.77;;;1.60;;
68947;SDS011;55996;49.546;7.400;2023-07-29T07:06:35;2.97;;;1.57;;
68947;SDS011;55996;49.546;7.400;2023-07-29T07:09:00;5.30;;;1.80;;
68947;SDS011;55996;49.546;7.400;2023-07-29T07:11:26;5.67;;;1.60;;
68947;SDS011;55996;49.546;7.400;2023-07-29T07:13:51;3.07;;;1.40;;
68947;SDS011;55996;49.546;7.400;2023-07-29T07:16:16;2.30;;;1.40;;
68947;SDS011;55996;49.546;7.400;2023-07-29T07:18:42;2.33;;;1.60;;
68947;SDS011;55996;49.546;7.400;2023-07-29T07:21:07;3.00;;;1.60;;
68947;SDS011;55996;49.546;7.400;2023-07-29T07:23:33;1.50;;;1.40;;
68947;SDS011;55996;49.546;7.400;2023-07-29T07:25:58;3.87;;;1.40;;
68947;SDS011;55996;49.546;7.400;2023-07-29T07:28:23;3.20;;;1.80;;
68947;SDS011;55996;49.546;7.400;2023-07-29T07:30:49;2.13;;;1.30;;
68947;SDS011;55996;49.546;7.400;2023-07-29T07:33:14;3.87;;;1.43;;
68947;SDS011;55996;49.546;7.400;2023-07-29T07:35:40;5.20;;;1.40;;
68947;SDS011;55996;49.546;7.400;2023-07-29T07:38:07;3.90;;;1.30;;
68947;SDS011;55996;49.546;7.400;2023-07-29T07:40:34;1.70;;;1.40;;
68947;SDS011;55996;49.546;7.400;2023-07-29T07:43:00;2.17;;;1.40;;
68947;SDS011;55996;49.546;7.400;2023-07-29T07:45:26;2.83;;;1.23;;
68947;SDS011;55996;49.546;7.400;2023-07-29T07:47:52;3.50;;;1.47;;
68947;SDS011;55996;49.546;7.400;2023-07-29T07:50:18;1.20;;;1.10;;
68947;SDS011;55996;49.546;7.400;2023-07-29T07:52:44;2.40;;;1.30;;
68947;SDS011;55996;49.546;7.400;2023-07-29T07:55:10;3.07;;;1.50;;
68947;SDS011;55996;49.546;7.400;2023-07-29T07:57:35;2.03;;;1.43;;
68947;SDS011;55996;49.546;7.400;2023-07-29T08:00:00;2.73;;;1.37;;
68947;SDS011;55996;49.546;7.400;2023-07-29T08:02:26;2.27;;;1.50;;
68947;SDS011;55996;49.546;7.400;2023-07-29T08:04:51;5.23;;;2.00;;
68947;SDS011;55996;49.546;7.400;2023-07-29T08:07:17;3.50;;;1.93;;
68947;SDS011;55996;49.546;7.400;2023-07-29T08:09:42;2.30;;;1.83;;
68947;SDS011;55996;49.546;7.400;2023-07-29T08:12:08;2.33;;;1.77;;
68947;SDS011;55996;49.546;7.400;2023-07-29T08:14:33;1.35;;;1.25;;
68947;SDS011;55996;49.546;7.400;2023-07-29T08:16:58;1.95;;;1.40;;
68947;SDS011;55996;49.546;7.400;2023-07-29T08:19:24;1.92;;;1.52;;
68947;SDS011;55996;49.546;7.400;2023-07-29T08:21:49;2.42;;;1.80;;
68947;SDS011;55996;49.546;7.400;2023-07-29T08:24:15;2.70;;;1.75;;
68947;SDS011;55996;49.546;7.400;2023-07-29T08:26:40;3.10;;;1.75;;
68947;SDS011;55996;49.546;7.400;2023-07-29T08:29:05;3.95;;;1.92;;
68947;SDS011;55996;49.546;7.400;2023-07-29T08:31:31;4.68;;;1.70;;
68947;SDS011;55996;49.546;7.400;2023-07-29T08:33:58;3.95;;;2.95;;
68947;SDS011;55996;49.546;7.400;2023-07-29T08:36:24;3.63;;;1.70;;
68947;SDS011;55996;49.546;7.400;2023-07-29T08:38:50;3.50;;;1.95;;
68947;SDS011;55996;49.546;7.400;2023-07-29T08:41:25;2.78;;;2.10;;
68947;SDS011;55996;49.546;7.400;2023-07-29T08:44:20;3.63;;;2.65;;
68947;SDS011;55996;49.546;7.400;2023-07-29T08:46:47;4.07;;;2.10;;
68947;SDS011;55996;49.546;7.400;2023-07-29T08:49:12;3.63;;;2.22;;
68947;SDS011;55996;49.546;7.400;2023-07-29T08:51:39;2.92;;;2.00;;
68947;SDS011;55996;49.546;7.400;2023-07-29T08:54:07;5.07;;;2.63;;
68947;SDS011;55996;49.546;7.400;2023-07-29T08:56:34;3.88;;;2.20;;
68947;SDS011;55996;49.546;7.400;2023-07-29T08:58:59;2.25;;;2.05;;
68947;SDS011;55996;49.546;7.400;2023-07-29T09:01:27;6.05;;;2.40;;
68947;SDS011;55996;49.546;7.400;2023-07-29T09:03:53;3.85;;;2.20;;
68947;SDS011;55996;49.546;7.400;2023-07-29T09:06:18;3.33;;;2.30;;
68947;SDS011;55996;49.546;7.400;2023-07-29T09:08:46;2.80;;;2.05;;
68947;SDS011;55996;49.546;7.400;2023-07-29T09:11:15;3.20;;;2.00;;
68947;SDS011;55996;49.546;7.400;2023-07-29T09:13:42;3.08;;;1.95;;
68947;SDS011;55996;49.546;7.400;2023-07-29T09:16:08;3.45;;;2.00;;
68947;SDS011;55996;49.546;7.400;2023-07-29T09:18:34;6.32;;;1.80;;
68947;SDS011;55996;49.546;7.400;2023-07-29T09:21:00;3.42;;;2.10;;
68947;SDS011;55996;49.546;7.400;2023-07-29T09:23:26;2.78;;;1.92;;
68947;SDS011;55996;49.546;7.400;2023-07-29T09:25:59;2.75;;;2.20;;
68947;SDS011;55996;49.546;7.400;2023-07-29T09:28:26;2.05;;;1.85;;
68947;SDS011;55996;49.546;7.400;2023-07-29T09:30:52;5.80;;;2.40;;
68947;SDS011;55996;49.546;7.400;2023-07-29T09:33:18;2.10;;;1.90;;
68947;SDS011;55996;49.546;7.400;2023-07-29T09:35:44;2.20;;;2.05;;
68947;SDS011;55996;49.546;7.400;2023-07-29T09:38:13;4.28;;;2.25;;
68947;SDS011;55996;49.546;7.400;2023-07-29T09:40:40;5.15;;;2.35;;
68947;SDS011;55996;49.546;7.400;2023-07-29T09:43:08;2.63;;;1.70;;
68947;SDS011;55996;49.546;7.400;2023-07-29T09:45:35;3.58;;;1.92;;
68947;SDS011;55996;49.546;7.400;2023-07-29T09:48:01;4.05;;;2.15;;
68947;SDS011;55996;49.546;7.400;2023-07-29T09:50:28;3.22;;;2.28;;
68947;SDS011;55996;49.546;7.400;2023-07-29T09:52:55;2.58;;;1.73;;
68947;SDS011;55996;49.546;7.400;2023-07-29T09:55:23;4.30;;;1.90;;
68947;SDS011;55996;49.546;7.400;2023-07-29T09:57:53;2.10;;;1.80;;
68947;SDS011;55996;49.546;7.400;2023-07-29T10:00:24;3.20;;;1.98;;
68947;SDS011;55996;49.546;7.400;2023-07-29T10:02:50;3.97;;;2.10;;
68947;SDS011;55996;49.546;7.400;2023-07-29T10:05:17;3.80;;;1.77;;
68947;SDS011;55996;49.546;7.400;2023-07-29T10:07:42;3.95;;;1.73;;
68947;SDS011;55996;49.546;7.400;2023-07-29T10:10:09;3.50;;;2.00;;
68947;SDS011;55996;49.546;7.400;2023-07-29T10:12:36;1.98;;;1.80;;
68947;SDS011;55996;49.546;7.400;2023-07-29T10:15:02;2.80;;;1.65;;
68947;SDS011;55996;49.546;7.400;2023-07-29T10:17:30;3.58;;;1.60;;
68947;SDS011;55996;49.546;7.400;2023-07-29T10:19:58;3.35;;;1.90;;
68947;SDS011;55996;49.546;7.400;2023-07-29T10:22:24;2.08;;;1.80;;
68947;SDS011;55996;49.546;7.400;2023-07-29T10:24:53;2.15;;;1.70;;
68947;SDS011;55996;49.546;7.400;2023-07-29T10:27:24;1.80;;;1.65;;
68947;SDS011;55996;49.546;7.400;2023-07-29T10:29:51;2.13;;;1.70;;
68947;SDS011;55996;49.546;7.400;2023-07-29T10:40:43;1.83;;;1.40;;
68947;SDS011;55996;49.546;7.400;2023-07-29T10:43:15;2.72;;;1.80;;
68947;SDS011;55996;49.546;7.400;2023-07-29T10:45:44;4.40;;;1.77;;
68947;SDS011;55996;49.546;7.400;2023-07-29T10:48:10;1.60;;;1.30;;
68947;SDS011;55996;49.546;7.400;2023-07-29T10:50:37;2.17;;;1.60;;
68947;SDS011;55996;49.546;7.400;2023-07-29T10:53:02;3.20;;;1.52;;
68947;SDS011;55996;49.546;7.400;2023-07-29T10:55:35;3.72;;;1.70;;
68947;SDS011;55996;49.546;7.400;2023-07-29T11:00:44;2.17;;;1.60;;
68947;SDS011;55996;49.546;7.400;2023-07-29T11:03:11;5.55;;;1.80;;
68947;SDS011;55996;49.546;7.400;2023-07-29T11:05:46;1.90;;;1.58;;
68947;SDS011;55996;49.546;7.400;2023-07-29T11:13:27;2.45;;;1.25;;
68947;SDS011;55996;49.546;7.400;2023-07-29T11:15:54;1.58;;;1.40;;
68947;SDS011;55996;49.546;7.400;2023-07-29T11:18:21;3.60;;;1.70;;
68947;SDS011;55996;49.546;7.400;2023-07-29T11:20:46;2.67;;;1.50;;
68947;SDS011;55996;49.546;7.400;2023-07-29T11:23:13;3.70;;;1.67;;
68947;SDS011;55996;49.546;7.400;2023-07-29T11:25:38;5.35;;;1.77;;
68947;SDS011;55996;49.546;7.400;2023-07-29T11:28:04;1.60;;;1.50;;
68947;SDS011;55996;49.546;7.400;2023-07-29T11:30:30;2.03;;;1.55;;
68947;SDS011;55996;49.546;7.400;2023-07-29T11:32:56;2.45;;;1.70;;
68947;SDS011;55996;49.546;7.400;2023-07-29T11:35:23;2.03;;;1.70;;
68947;SDS011;55996;49.546;7.400;2023-07-29T11:37:53;1.63;;;1.52;;
68947;SDS011;55996;49.546;7.400;2023-07-29T11:40:20;1.70;;;1.60;;
68947;SDS011;55996;49.546;7.400;2023-07-29T11:42:47;2.30;;;1.40;;
68947;SDS011;55996;49.546;7.400;2023-07-29T11:45:17;1.90;;;1.63;;
68947;SDS011;55996;49.546;7.400;2023-07-29T11:47:44;2.83;;;1.70;;
68947;SDS011;55996;49.546;7.400;2023-07-29T11:50:10;3.67;;;1.60;;
68947;SDS011;55996;49.546;7.400;2023-07-29T11:52:40;4.10;;;1.60;;
68947;SDS011;55996;49.546;7.400;2023-07-29T11:55:07;1.95;;;1.85;;
68947;SDS011;55996;49.546;7.400;2023-07-29T11:57:33;1.58;;;1.48;;
68947;SDS011;55996;49.546;7.400;2023-07-29T12:00:01;1.95;;;1.60;;
68947;SDS011;55996;49.546;7.400;2023-07-29T12:02:31;1.70;;;1.60;;
68947;SDS011;55996;49.546;7.400;2023-07-29T12:04:58;1.58;;;1.48;;
68947;SDS011;55996;49.546;7.400;2023-07-29T12:07:24;2.38;;;1.55;;
68947;SDS011;55996;49.546;7.400;2023-07-29T12:09:50;2.15;;;1.83;;
68947;SDS011;55996;49.546;7.400;2023-07-29T12:12:17;1.98;;;1.63;;
68947;SDS011;55996;49.546;7.400;2023-07-29T12:14:46;2.40;;;1.80;;
68947;SDS011;55996;49.546;7.400;2023-07-29T12:17:12;1.75;;;1.65;;
68947;SDS011;55996;49.546;7.400;2023-07-29T12:19:38;3.10;;;1.83;;
68947;SDS011;55996;49.546;7.400;2023-07-29T12:22:06;5.80;;;1.80;;
68947;SDS011;55996;49.546;7.400;2023-07-29T12:24:33;1.70;;;1.58;;
68947;SDS011;55996;49.546;7.400;2023-07-29T12:27:00;1.70;;;1.60;;
68947;SDS011;55996;49.546;7.400;2023-07-29T12:29:26;2.17;;;1.60;;
68947;SDS011;55996;49.546;7.400;2023-07-29T12:31:56;1.58;;;1.40;;
68947;SDS011;55996;49.546;7.400;2023-07-29T12:34:27;2.45;;;1.77;;
68947;SDS011;55996;49.546;7.400;2023-07-29T12:36:53;2.10;;;1.77;;
68947;SDS011;55996;49.546;7.400;2023-07-29T12:39:21;5.85;;;2.00;;
68947;SDS011;55996;49.546;7.400;2023-07-29T12:41:50;3.05;;;1.88;;
68947;SDS011;55996;49.546;7.400;2023-07-29T12:44:17;2.78;;;1.40;;
68947;SDS011;55996;49.546;7.400;2023-07-29T12:46:43;2.25;;;1.60;;
68947;SDS011;55996;49.546;7.400;2023-07-29T12:49:08;4.43;;;1.83;;
68947;SDS011;55996;49.546;7.400;2023-07-29T12:51:34;3.20;;;1.98;;
68947;SDS011;55996;49.546;7.400;2023-07-29T12:54:00;5.72;;;1.90;;
68947;SDS011;55996;49.546;7.400;2023-07-29T12:56:25;3.97;;;1.70;;
68947;SDS011;55996;49.546;7.400;2023-07-29T12:58:51;3.08;;;1.70;;
68947;SDS011;55996;49.546;7.400;2023-07-29T13:01:17;3.47;;;1.70;;
68947;SDS011;55996;49.546;7.400;2023-07-29T13:03:43;1.85;;;1.75;;
68947;SDS011;55996;49.546;7.400;2023-07-29T13:06:09;6.57;;;2.03;;
68947;SDS011;55996;49.546;7.400;2023-07-29T13:08:35;4.28;;;1.80;;
68947;SDS011;55996;49.546;7.400;2023-07-29T13:11:00;2.03;;;1.80;;
68947;SDS011;55996;49.546;7.400;2023-07-29T13:13:25;2.30;;;1.60;;
68947;SDS011;55996;49.546;7.400;2023-07-29T13:15:51;1.77;;;1.67;;
68947;SDS011;55996;49.546;7.400;2023-07-29T13:18:17;3.33;;;1.70;;
68947;SDS011;55996;49.546;7.400;2023-07-29T13:20:43;3.08;;;1.92;;
68947;SDS011;55996;49.546;7.400;2023-07-29T13:23:08;2.85;;;1.70;;
68947;SDS011;55996;49.546;7.400;2023-07-29T13:25:34;4.72;;;1.88;;
68947;SDS011;55996;49.546;7.400;2023-07-29T13:27:59;2.55;;;1.92;;
68947;SDS011;55996;49.546;7.400;2023-07-29T13:30:24;2.40;;;1.60;;
68947;SDS011;55996;49.546;7.400;2023-07-29T13:32:50;2.95;;;1.77;;
68947;SDS011;55996;49.546;7.400;2023-07-29T13:35:15;4.35;;;1.90;;
68947;SDS011;55996;49.546;7.400;2023-07-29T13:37:40;1.80;;;1.60;;
68947;SDS011;55996;49.546;7.400;2023-07-29T13:40:06;5.53;;;1.85;;
68947;SDS011;55996;49.546;7.400;2023-07-29T13:42:32;2.00;;;1.80;;
68947;SDS011;55996;49.546;7.400;2023-07-29T13:44:57;1.95;;;1.65;;
68947;SDS011;55996;49.546;7.400;2023-07-29T13:47:23;4.03;;;1.98;;
68947;SDS011;55996;49.546;7.400;2023-07-29T13:49:48;3.45;;;1.50;;
68947;SDS011;55996;49.546;7.400;2023-07-29T13:52:13;1.77;;;1.67;;
68947;SDS011;55996;49.546;7.400;2023-07-29T13:54:39;2.00;;;1.80;;
68947;SDS011;55996;49.546;7.400;2023-07-29T13:57:04;4.25;;;1.80;;
68947;SDS011;55996;49.546;7.400;2023-07-29T13:59:31;2.10;;;1.70;;
68947;SDS011;55996;49.546;7.400;2023-07-29T14:01:57;2.53;;;1.63;;
68947;SDS011;55996;49.546;7.400;2023-07-29T14:04:22;3.92;;;1.60;;
68947;SDS011;55996;49.546;7.400;2023-07-29T14:06:48;7.97;;;2.20;;
68947;SDS011;55996;49.546;7.400;2023-07-29T14:09:13;2.30;;;1.85;;
68947;SDS011;55996;49.546;7.400;2023-07-29T14:11:39;2.08;;;1.92;;
68947;SDS011;55996;49.546;7.400;2023-07-29T14:14:05;2.28;;;2.08;;
68947;SDS011;55996;49.546;7.400;2023-07-29T14:16:30;2.00;;;1.80;;
68947;SDS011;55996;49.546;7.400;2023-07-29T14:18:56;1.85;;;1.75;;
68947;SDS011;55996;49.546;7.400;2023-07-29T14:21:21;2.28;;;1.77;;
68947;SDS011;55996;49.546;7.400;2023-07-29T14:23:46;1.98;;;1.83;;
68947;SDS011;55996;49.546;7.400;2023-07-29T14:26:15;2.45;;;1.85;;
68947;SDS011;55996;49.546;7.400;2023-07-29T14:28:40;4.30;;;1.88;;
68947;SDS011;55996;49.546;7.400;2023-07-29T14:31:06;3.08;;;1.70;;
68947;SDS011;55996;49.546;7.400;2023-07-29T14:33:31;3.35;;;1.80;;
68947;SDS011;55996;49.546;7.400;2023-07-29T14:35:57;1.92;;;1.83;;
68947;SDS011;55996;49.546;7.400;2023-07-29T14:38:22;3.40;;;2.00;;
68947;SDS011;55996;49.546;7.400;2023-07-29T14:45:58;2.38;;;1.80;;
68947;SDS011;55996;49.546;7.400;2023-07-29T14:48:23;4.35;;;2.30;;
68947;SDS011;55996;49.546;7.400;2023-07-29T14:50:49;3.22;;;1.90;;
68947;SDS011;55996;49.546;7.400;2023-07-29T14:53:14;2.55;;;2.00;;
68947;SDS011;55996;49.546;7.400;2023-07-29T14:55:40;2.20;;;2.00;;
68947;SDS011;55996;49.546;7.400;2023-07-29T14:58:05;2.30;;;2.05;;
68947;SDS011;55996;49.546;7.400;2023-07-29T15:00:31;2.05;;;1.90;;
68947;SDS011;55996;49.546;7.400;2023-07-29T15:02:56;2.65;;;1.90;;
68947;SDS011;55996;49.546;7.400;2023-07-29T15:05:22;1.95;;;1.80;;
68947;SDS011;55996;49.546;7.400;2023-07-29T15:07:47;1.80;;;1.70;;
68947;SDS011;55996;49.546;7.400;2023-07-29T15:10:16;1.90;;;1.80;;
68947;SDS011;55996;49.546;7.400;2023-07-29T15:12:42;3.63;;;2.00;;
68947;SDS011;55996;49.546;7.400;2023-07-29T15:15:08;2.35;;;1.88;;